Time;durP1;ratioP1;P1;durP2;ratioP2;P2;SDS_P1;SDS_P2;PMS_P1;PMS_P2;Temp;Humidity;BMP_temperature;BMP_pressure;BME280_temperature;BME280_humidity;BME280_pressure;Samples;Min_cycle;Max_cycle;Signal;HPM_P1;HPM_P2
2023/05/24 00:01:11;;;;;;;12.10;3.78;;;;;;;12.03;72.91;102357.75;5058759;28;20045;-66
2023/05/24 00:03:39;;;;;;;15.68;4.38;;;;;;;12.00;73.68;102358.22;5056291;28;20128;-67
2023/05/24 00:06:07;;;;;;;12.63;4.25;;;;;;;11.98;74.04;102349.44;5059202;28;20444;-68
2023/05/24 00:08:35;;;;;;;14.57;4.05;;;;;;;11.97;73.71;102348.59;5075091;28;20497;-66
2023/05/24 00:11:03;;;;;;;14.13;4.07;;;;;;;11.95;74.20;102345.28;5047802;28;20060;-67
2023/05/24 00:13:30;;;;;;;13.25;3.95;;;;;;;11.93;74.51;102341.97;5035460;28;20144;-66
2023/05/24 00:15:58;;;;;;;14.55;3.85;;;;;;;11.90;74.89;102343.25;5051866;28;20495;-66
2023/05/24 00:18:26;;;;;;;13.20;3.92;;;;;;;11.91;74.45;102339.47;5076225;28;20055;-66
2023/05/24 00:20:55;;;;;;;16.88;4.40;;;;;;;11.90;75.06;102336.97;5054291;28;20085;-66
2023/05/24 00:23:24;;;;;;;15.60;4.18;;;;;;;11.87;75.02;102332.81;5040811;28;20076;-66
2023/05/24 00:25:52;;;;;;;12.07;3.70;;;;;;;11.85;74.92;102326.75;5048599;28;21882;-66
2023/05/24 00:28:20;;;;;;;12.43;4.20;;;;;;;11.85;74.94;102334.09;5034682;28;20096;-67
2023/05/24 00:30:49;;;;;;;14.30;4.40;;;;;;;11.83;75.80;102330.78;5041301;28;20106;-67
2023/05/24 00:33:17;;;;;;;13.68;3.72;;;;;;;11.81;76.25;102322.00;5054034;28;20390;-67
2023/05/24 00:35:45;;;;;;;14.95;4.15;;;;;;;11.77;76.12;102321.66;5045427;28;20166;-67
2023/05/24 00:38:13;;;;;;;13.90;3.60;;;;;;;11.78;76.92;102320.56;5074734;28;20492;-66
2023/05/24 00:40:41;;;;;;;14.60;4.05;;;;;;;11.80;76.15;102321.16;5056225;28;20059;-67
2023/05/24 00:43:10;;;;;;;10.65;4.13;;;;;;;11.80;76.27;102325.81;5036031;28;20492;-66
2023/05/24 00:45:37;;;;;;;12.43;3.88;;;;;;;11.80;76.98;102323.91;5055501;28;20056;-66
2023/05/24 00:48:06;;;;;;;14.20;4.47;;;;;;;11.81;76.81;102328.31;5054092;28;20428;-66
2023/05/24 00:50:34;;;;;;;11.20;3.55;;;;;;;11.83;76.66;102325.31;5055048;28;20095;-66
2023/05/24 00:53:04;;;;;;;14.57;4.10;;;;;;;11.85;76.79;102323.19;5052193;28;20102;-66
2023/05/24 00:55:33;;;;;;;16.65;4.03;;;;;;;11.82;77.05;102312.75;5054249;28;20071;-67
2023/05/24 00:58:02;;;;;;;14.52;4.50;;;;;;;11.81;76.57;102311.94;5072544;28;20051;-66
2023/05/24 01:00:30;;;;;;;12.02;4.07;;;;;;;11.82;76.73;102308.09;5073581;28;20125;-66
2023/05/24 01:02:59;;;;;;;14.30;4.25;;;;;;;11.80;76.31;102307.50;5061872;28;20461;-66
2023/05/24 01:05:27;;;;;;;13.82;4.05;;;;;;;11.73;77.54;102310.38;5000736;28;20046;-66
2023/05/24 01:08:18;;;;;;;13.23;4.05;;;;;;;11.68;77.75;102306.69;5033579;28;20051;-67
2023/05/24 01:10:55;;;;;;;13.88;3.92;;;;;;;11.64;78.35;102300.03;5037156;28;20041;-66
2023/05/24 01:13:28;;;;;;;13.88;3.80;;;;;;;11.60;78.67;102296.16;5052698;28;20067;-66
2023/05/24 01:15:59;;;;;;;17.70;4.85;;;;;;;11.59;78.61;102302.66;5037150;28;20058;-67
2023/05/24 01:18:51;;;;;;;13.55;4.43;;;;;;;11.59;78.20;102308.13;5054224;28;20064;-67
2023/05/24 01:21:29;;;;;;;12.75;3.90;;;;;;;11.61;78.57;102297.81;5037069;28;20493;-66
2023/05/24 01:24:22;;;;;;;14.95;4.18;;;;;;;11.64;78.29;102306.38;5052761;28;20405;-67
2023/05/24 01:27:07;;;;;;;10.10;4.00;;;;;;;11.63;78.16;102293.75;5053579;28;20040;-66
2023/05/24 01:29:35;;;;;;;18.00;4.78;;;;;;;11.56;78.66;102300.41;5034345;28;20456;-67
2023/05/24 01:32:04;;;;;;;12.35;4.50;;;;;;;11.51;78.92;102293.75;5033709;28;20056;-67
2023/05/24 01:34:32;;;;;;;14.43;4.80;;;;;;;11.47;79.40;102294.47;5037735;28;20048;-67
2023/05/24 01:37:00;;;;;;;13.38;4.55;;;;;;;11.43;79.49;102296.03;5059303;28;20052;-66
2023/05/24 01:39:28;;;;;;;11.93;4.45;;;;;;;11.40;79.74;102294.63;5058923;28;20517;-66
2023/05/24 01:42:23;;;;;;;15.38;4.47;;;;;;;11.39;80.17;102292.94;5039372;28;20052;-66
2023/05/24 01:45:05;;;;;;;13.57;4.30;;;;;;;11.43;80.20;102293.31;5036275;28;20084;-67
2023/05/24 01:47:57;;;;;;;12.00;4.00;;;;;;;11.47;80.22;102292.59;5063996;28;20049;-66
2023/05/24 01:50:30;;;;;;;15.05;4.32;;;;;;;11.48;79.45;102288.78;5055226;28;20041;-68
2023/05/24 01:53:04;;;;;;;12.85;4.20;;;;;;;11.48;79.57;102286.06;5037618;28;20140;-66
2023/05/24 01:55:32;;;;;;;12.43;4.35;;;;;;;11.45;79.66;102292.00;5033505;28;20340;-66
2023/05/24 01:58:03;;;;;;;10.93;4.00;;;;;;;11.41;80.17;102290.81;5017591;28;20393;-66
2023/05/24 02:00:32;;;;;;;12.45;4.10;;;;;;;11.41;79.47;102296.28;5037558;28;20104;-67
2023/05/24 02:03:01;;;;;;;12.60;4.25;;;;;;;11.40;79.79;102294.63;5052963;28;20052;-68
2023/05/24 02:05:32;;;;;;;14.60;4.70;;;;;;;11.35;80.24;102293.66;5051769;28;20695;-66
2023/05/24 02:08:05;;;;;;;15.13;4.00;;;;;;;11.29;80.52;102295.44;5053323;28;20041;-66
2023/05/24 02:10:33;;;;;;;12.05;3.60;;;;;;;11.24;81.22;102300.78;5052591;28;20049;-67
2023/05/24 02:13:00;;;;;;;16.00;4.50;;;;;;;11.20;81.35;102300.41;5052155;28;20107;-66
2023/05/24 02:15:29;;;;;;;14.35;4.20;;;;;;;11.21;81.36;102301.25;5052948;28;20052;-66
2023/05/24 02:17:57;;;;;;;13.00;4.35;;;;;;;11.23;80.99;102304.56;5034639;28;20046;-67
2023/05/24 02:20:27;;;;;;;13.63;4.25;;;;;;;11.20;80.74;102311.31;5032707;28;20053;-66
2023/05/24 02:22:55;;;;;;;14.20;4.18;;;;;;;11.15;81.29;102313.09;5034648;28;20063;-66
2023/05/24 02:25:25;;;;;;;12.57;4.10;;;;;;;11.07;82.14;102319.72;5032658;28;20110;-65
2023/05/24 02:27:53;;;;;;;15.10;4.35;;;;;;;11.01;81.97;102317.94;5028116;28;20133;-66
2023/05/24 02:30:21;;;;;;;13.40;4.05;;;;;;;10.92;82.32;102317.47;5043257;28;20041;-66
2023/05/24 02:32:49;;;;;;;16.77;4.22;;;;;;;10.86;83.02;102310.19;5054105;28;20049;-66
2023/05/24 02:35:16;;;;;;;16.30;4.28;;;;;;;10.80;84.05;102308.38;5052592;28;20072;-66
2023/05/24 02:37:45;;;;;;;15.73;4.35;;;;;;;10.77;84.00;102306.97;5070745;28;20102;-66
2023/05/24 02:40:13;;;;;;;15.52;4.28;;;;;;;10.76;84.22;102308.03;5073574;28;20045;-65
2023/05/24 02:42:41;;;;;;;11.32;4.07;;;;;;;10.75;84.90;102308.25;5073263;28;20458;-65
2023/05/24 02:45:09;;;;;;;14.75;4.25;;;;;;;10.73;84.68;102316.69;5066468;28;20049;-67
2023/05/24 02:47:37;;;;;;;13.98;4.55;;;;;;;10.72;85.12;102308.72;5039111;28;20095;-67
2023/05/24 02:50:05;;;;;;;14.70;4.45;;;;;;;10.68;85.78;102307.53;5032337;28;20049;-66
2023/05/24 02:52:33;;;;;;;13.18;3.90;;;;;;;10.64;85.94;102308.00;5016000;28;20049;-66
2023/05/24 02:55:00;;;;;;;14.88;4.47;;;;;;;10.63;85.76;102305.50;5032216;28;20099;-67
2023/05/24 02:57:32;;;;;;;14.02;4.05;;;;;;;10.62;86.06;102310.13;5048188;28;20460;-66
2023/05/24 03:00:00;;;;;;;15.38;4.47;;;;;;;10.60;86.46;102306.78;5064970;28;20037;-67
2023/05/24 03:02:32;;;;;;;12.00;4.22;;;;;;;10.60;86.23;102304.06;5016471;28;20053;-66
2023/05/24 03:05:00;;;;;;;13.50;4.32;;;;;;;10.60;86.59;102305.97;5031744;28;20132;-66
2023/05/24 03:07:29;;;;;;;15.05;4.63;;;;;;;10.59;86.43;102296.97;5048425;28;20064;-66
2023/05/24 03:09:57;;;;;;;13.18;4.00;;;;;;;10.60;86.26;102298.59;5031774;28;20060;-66
2023/05/24 03:12:25;;;;;;;13.50;3.47;;;;;;;10.64;86.16;102297.09;5032257;28;20045;-66
2023/05/24 03:14:53;;;;;;;15.35;4.13;;;;;;;10.64;85.63;102294.38;5048044;28;20053;-66
2023/05/24 03:17:22;;;;;;;11.93;4.20;;;;;;;10.60;85.98;102287.72;5052484;28;20053;-66
2023/05/24 03:19:51;;;;;;;16.23;4.88;;;;;;;10.60;86.32;102295.06;5051725;28;20041;-67
2023/05/24 03:22:19;;;;;;;12.45;4.07;;;;;;;10.61;85.77;102299.47;5053128;28;20119;-66
2023/05/24 03:24:47;;;;;;;14.07;3.88;;;;;;;10.61;86.20;102297.56;5072314;28;20072;-66
2023/05/24 03:27:16;;;;;;;13.75;3.88;;;;;;;10.58;86.12;102299.91;5036825;28;20037;-67
2023/05/24 03:29:44;;;;;;;15.13;4.70;;;;;;;10.53;86.21;102299.78;5042283;28;20122;-66
2023/05/24 03:32:12;;;;;;;14.55;4.60;;;;;;;10.49;86.52;102296.69;5036178;28;20476;-65
2023/05/24 03:34:40;;;;;;;14.82;4.80;;;;;;;10.47;86.76;102295.25;5019661;28;20064;-66
2023/05/24 03:37:09;;;;;;;12.45;4.25;;;;;;;10.42;86.98;102290.50;5020653;28;20436;-66
2023/05/24 03:39:37;;;;;;;15.43;4.30;;;;;;;10.38;87.73;102292.03;5035347;28;20056;-65
2023/05/24 03:42:27;;;;;;;14.52;4.28;;;;;;;10.31;87.96;102288.56;5036108;28;20103;-66
2023/05/24 03:44:54;;;;;;;18.13;4.88;;;;;;;10.28;88.38;102286.25;5023191;28;20068;-66
2023/05/24 03:47:22;;;;;;;16.35;4.00;;;;;;;10.29;88.75;102287.94;5059022;28;20505;-66
2023/05/24 03:49:50;;;;;;;14.52;4.43;;;;;;;10.31;88.67;102280.38;5057644;28;20041;-65
2023/05/24 03:52:18;;;;;;;12.43;3.53;;;;;;;10.33;88.28;102278.25;5048103;28;20045;-66
2023/05/24 03:54:45;;;;;;;17.27;5.00;;;;;;;10.34;88.56;102285.34;5036319;28;20501;-67
2023/05/24 03:57:13;;;;;;;12.93;3.65;;;;;;;10.36;88.22;102283.25;5041766;28;20037;-65
2023/05/24 03:59:41;;;;;;;14.30;4.30;;;;;;;10.42;88.23;102288.59;5059622;28;20040;-65
2023/05/24 04:02:09;;;;;;;12.85;4.18;;;;;;;10.48;88.23;102286.00;5055409;28;20083;-66
2023/05/24 04:04:37;;;;;;;12.63;4.13;;;;;;;10.48;88.41;102281.38;5054147;28;20048;-67
2023/05/24 04:07:06;;;;;;;13.00;4.18;;;;;;;10.49;88.13;102279.53;5053461;28;20049;-66
2023/05/24 04:09:34;;;;;;;13.60;4.57;;;;;;;10.48;88.32;102280.56;5071691;28;20055;-65
2023/05/24 04:12:12;;;;;;;15.73;4.55;;;;;;;10.47;87.87;102277.00;5040639;28;20132;-66
2023/05/24 04:14:41;;;;;;;14.70;4.65;;;;;;;10.45;88.41;102281.88;5050264;28;20050;-66
2023/05/24 04:17:09;;;;;;;15.45;5.10;;;;;;;10.40;88.94;102290.72;5037384;28;20486;-68
2023/05/24 04:19:37;;;;;;;16.00;4.60;;;;;;;10.42;88.80;102287.78;5020280;28;20047;-66
2023/05/24 04:22:04;;;;;;;12.85;4.72;;;;;;;10.42;88.90;102298.69;5035546;28;20455;-67
2023/05/24 04:24:32;;;;;;;17.20;5.05;;;;;;;10.43;88.99;102289.44;5052906;28;20496;-68
2023/05/24 04:27:00;;;;;;;15.80;4.65;;;;;;;10.43;89.46;102286.69;5052814;28;20508;-67
2023/05/24 04:29:28;;;;;;;14.25;4.32;;;;;;;10.43;89.81;102294.88;5033145;28;20053;-66
2023/05/24 04:31:56;;;;;;;14.95;4.50;;;;;;;10.44;89.44;102291.09;5050452;28;20052;-66
2023/05/24 04:34:24;;;;;;;13.85;4.93;;;;;;;10.44;89.91;102293.84;5051526;28;20563;-67
2023/05/24 04:36:52;;;;;;;14.82;4.90;;;;;;;10.44;90.58;102289.22;5041610;28;20058;-67
2023/05/24 04:39:20;;;;;;;18.17;5.00;;;;;;;10.45;90.36;102287.31;5075675;28;20148;-66
2023/05/24 04:41:50;;;;;;;13.27;4.28;;;;;;;10.45;90.39;102287.31;5073505;28;20045;-66
2023/05/24 04:44:19;;;;;;;18.20;5.13;;;;;;;10.44;91.14;102291.94;5037493;28;20481;-66
2023/05/24 04:46:50;;;;;;;19.92;5.90;;;;;;;10.45;91.04;102295.47;4337325;28;10000489;-67
2023/05/24 04:49:18;;;;;;;18.42;4.93;;;;;;;10.44;91.35;102296.56;5032021;28;20161;-66
2023/05/24 04:51:46;;;;;;;15.23;5.00;;;;;;;10.45;91.63;102299.03;5051740;28;20102;-67
2023/05/24 04:54:15;;;;;;;17.33;5.20;;;;;;;10.42;92.11;102304.94;5029539;28;20098;-67
2023/05/24 04:56:43;;;;;;;13.73;4.55;;;;;;;10.43;91.63;102300.34;5054402;28;20075;-68
2023/05/24 04:59:11;;;;;;;18.70;5.30;;;;;;;10.42;92.37;102301.41;5054899;28;20048;-68
2023/05/24 05:01:39;;;;;;;17.38;5.40;;;;;;;10.41;92.64;102307.91;5030404;28;20045;-67
2023/05/24 05:04:06;;;;;;;20.40;5.70;;;;;;;10.44;93.10;102299.28;5047475;28;20048;-67
2023/05/24 05:06:37;;;;;;;17.30;5.68;;;;;;;10.47;93.53;102298.00;5032146;28;20080;-66
2023/05/24 05:09:08;;;;;;;18.15;5.65;;;;;;;10.49;93.50;102313.03;5032293;28;20045;-67
2023/05/24 05:11:36;;;;;;;21.80;5.35;;;;;;;10.53;93.66;102306.06;5014422;28;20152;-67
2023/05/24 05:14:05;;;;;;;17.58;5.72;;;;;;;10.57;93.36;102304.53;5043960;28;20053;-67
2023/05/24 05:16:33;;;;;;;23.40;6.07;;;;;;;10.57;93.18;102309.16;5055916;28;20500;-67
2023/05/24 05:19:03;;;;;;;21.58;5.53;;;;;;;10.56;93.97;102311.06;5064830;28;20382;-68
2023/05/24 05:21:35;;;;;;;20.15;5.55;;;;;;;10.56;93.80;102308.34;5049450;28;20413;-67
2023/05/24 05:24:03;;;;;;;21.95;5.88;;;;;;;10.58;94.10;102303.50;5034142;28;20107;-67
2023/05/24 05:26:30;;;;;;;17.42;5.88;;;;;;;10.62;94.46;102310.13;5053521;28;20045;-67
2023/05/24 05:28:58;;;;;;;20.70;6.20;;;;;;;10.63;94.85;102311.81;5059309;28;20045;-67
2023/05/24 05:31:26;;;;;;;18.73;5.97;;;;;;;10.64;94.84;102312.63;5028961;28;20056;-67
2023/05/24 05:33:54;;;;;;;18.80;5.75;;;;;;;10.65;95.43;102314.28;5030036;28;20053;-66
2023/05/24 05:36:21;;;;;;;19.33;5.47;;;;;;;10.71;95.74;102312.53;5051328;28;20056;-66
2023/05/24 05:38:49;;;;;;;17.52;5.80;;;;;;;10.71;95.82;102312.53;5059825;28;20033;-66
2023/05/24 05:41:17;;;;;;;16.98;5.97;;;;;;;10.70;96.37;102316.31;5058542;28;20057;-65
2023/05/24 05:43:45;;;;;;;19.10;5.55;;;;;;;10.69;96.39;102306.47;5056807;28;20102;-66
2023/05/24 05:46:14;;;;;;;20.75;6.65;;;;;;;10.70;97.08;102310.84;5054604;28;20139;-67
2023/05/24 05:48:42;;;;;;;20.63;5.88;;;;;;;10.69;96.75;102312.75;5060695;28;20075;-66
2023/05/24 05:51:13;;;;;;;21.33;7.35;;;;;;;10.70;97.58;102317.13;5058469;28;20064;-67
2023/05/24 05:53:40;;;;;;;19.17;5.60;;;;;;;10.70;97.85;102310.84;5056007;28;20424;-66
2023/05/24 05:56:08;;;;;;;17.15;5.93;;;;;;;10.75;97.95;102319.16;5008082;28;20072;-66
2023/05/24 05:58:37;;;;;;;21.50;6.65;;;;;;;10.77;97.39;102308.84;5053731;28;20098;-66
2023/05/24 06:01:05;;;;;;;19.10;5.50;;;;;;;10.79;97.59;102309.47;5052824;28;20102;-66
2023/05/24 06:03:33;;;;;;;22.33;6.10;;;;;;;10.82;97.92;102314.44;5037359;28;20045;-66
2023/05/24 06:06:01;;;;;;;19.45;6.13;;;;;;;10.81;98.33;102312.78;5054266;28;20044;-67
2023/05/24 06:08:33;;;;;;;17.60;5.68;;;;;;;10.81;98.65;102315.53;5074102;28;20050;-67
2023/05/24 06:11:01;;;;;;;19.40;5.93;;;;;;;10.80;99.00;102317.41;5049120;28;20045;-66
2023/05/24 06:13:31;;;;;;;19.92;6.47;;;;;;;10.83;98.80;102322.41;5016632;28;20050;-67
2023/05/24 06:16:00;;;;;;;15.18;6.25;;;;;;;10.87;99.86;102331.78;5041028;28;20052;-67
2023/05/24 06:18:29;;;;;;;20.05;6.15;;;;;;;10.95;99.67;102332.53;5036535;28;20044;-67
2023/05/24 06:20:57;;;;;;;20.00;7.68;;;;;;;11.00;99.09;102330.75;5039295;28;20045;-67
2023/05/24 06:23:25;;;;;;;25.33;7.07;;;;;;;11.03;99.56;102327.53;5052566;28;20045;-67
2023/05/24 06:25:53;;;;;;;24.40;7.15;;;;;;;11.07;99.28;102331.47;5052617;28;20036;-67
2023/05/24 06:28:21;;;;;;;19.95;7.05;;;;;;;11.05;99.73;102339.06;5053924;28;20091;-67
2023/05/24 06:30:49;;;;;;;25.25;7.07;;;;;;;11.06;100.00;102348.06;5052346;28;20056;-67
2023/05/24 06:33:17;;;;;;;28.38;6.90;;;;;;;11.04;99.87;102342.84;5052447;28;20076;-67
2023/05/24 06:35:44;;;;;;;21.77;6.97;;;;;;;11.08;100.00;102340.47;5043375;28;20045;-67
2023/05/24 06:38:12;;;;;;;29.25;7.43;;;;;;;11.11;100.00;102333.72;5053753;28;20073;-67
2023/05/24 06:40:40;;;;;;;26.30;7.75;;;;;;;11.12;100.00;102336.22;5052527;28;20053;-66
2023/05/24 06:43:08;;;;;;;33.75;8.93;;;;;;;11.15;100.00;102343.09;5050590;28;20551;-67
2023/05/24 06:45:36;;;;;;;26.05;7.82;;;;;;;11.18;100.00;102339.91;5053803;28;20136;-68
2023/05/24 06:48:04;;;;;;;25.15;7.15;;;;;;;11.20;99.49;102337.78;5051931;28;20465;-67
2023/05/24 06:50:32;;;;;;;24.83;7.00;;;;;;;11.21;97.81;102334.81;5052372;28;20444;-66
2023/05/24 06:53:01;;;;;;;22.98;6.82;;;;;;;11.22;96.79;102332.91;5046397;28;20098;-67
2023/05/24 06:55:29;;;;;;;24.70;6.90;;;;;;;11.27;96.78;102343.94;5058672;28;20128;-67
2023/05/24 06:57:57;;;;;;;21.45;6.50;;;;;;;11.29;95.97;102344.56;5075175;28;20431;-67
2023/05/24 07:00:26;;;;;;;32.78;7.93;;;;;;;11.33;96.31;102353.94;5041277;28;20053;-68
2023/05/24 07:02:54;;;;;;;28.23;7.13;;;;;;;11.35;96.42;102354.50;5056205;28;20053;-68
2023/05/24 07:05:22;;;;;;;25.40;7.68;;;;;;;11.44;94.33;102350.38;5057804;28;20049;-67
2023/05/24 07:07:51;;;;;;;20.75;6.50;;;;;;;11.54;94.27;102352.50;5056654;28;20123;-66
2023/05/24 07:10:19;;;;;;;25.00;7.28;;;;;;;11.60;93.32;102348.03;5056304;28;20120;-67
2023/05/24 07:12:47;;;;;;;26.35;7.57;;;;;;;11.55;91.99;102354.19;5021654;28;20453;-66
2023/05/24 07:15:14;;;;;;;25.65;6.97;;;;;;;11.53;92.08;102350.88;5056914;28;20104;-68
2023/05/24 07:17:42;;;;;;;20.73;6.30;;;;;;;11.55;92.14;102342.44;5039766;28;20096;-67
2023/05/24 07:20:12;;;;;;;25.02;7.63;;;;;;;11.58;91.55;102352.88;5055530;28;20060;-67
2023/05/24 07:22:43;;;;;;;26.55;7.00;;;;;;;11.59;91.63;102346.34;5039660;28;20098;-66
2023/05/24 07:25:10;;;;;;;22.48;6.95;;;;;;;11.60;91.46;102348.03;5056074;28;20072;-67
2023/05/24 07:27:38;;;;;;;24.55;7.55;;;;;;;11.63;91.28;102351.09;5057187;28;20053;-68
2023/05/24 07:30:07;;;;;;;20.73;5.85;;;;;;;11.64;91.03;102354.66;5055989;28;20053;-67
2023/05/24 07:32:46;;;;;;;21.38;6.15;;;;;;;11.64;89.04;102357.38;5041127;28;20056;-67
2023/05/24 07:35:15;;;;;;;23.52;6.32;;;;;;;11.64;89.46;102354.66;5047425;28;20045;-66
2023/05/24 07:37:42;;;;;;;22.02;5.80;;;;;;;11.69;89.26;102360.25;5059882;28;20052;-68
2023/05/24 07:40:11;;;;;;;17.17;5.60;;;;;;;11.73;88.66;102364.16;5059147;28;20048;-67
2023/05/24 07:42:39;;;;;;;24.60;6.13;;;;;;;11.75;89.45;102359.28;5076732;28;20611;-66
2023/05/24 07:45:10;;;;;;;23.67;6.60;;;;;;;11.77;89.55;102359.06;5070159;28;20094;-66
2023/05/24 07:47:38;;;;;;;24.00;6.65;;;;;;;11.79;90.76;102357.75;5056022;28;20440;-66
2023/05/24 07:50:06;;;;;;;23.83;7.03;;;;;;;11.76;89.33;102354.66;5056893;28;20128;-67
2023/05/24 07:52:34;;;;;;;21.98;5.78;;;;;;;11.83;89.82;102364.38;5056852;28;20049;-66
2023/05/24 07:55:01;;;;;;;19.05;4.80;;;;;;;11.89;89.18;102358.00;5066839;28;20045;-66
2023/05/24 07:57:29;;;;;;;19.48;5.80;;;;;;;12.00;87.60;102356.34;5076030;28;20493;-66
2023/05/24 07:59:57;;;;;;;22.55;5.50;;;;;;;12.06;87.66;102357.28;5075479;28;20052;-68
2023/05/24 08:02:25;;;;;;;19.58;5.32;;;;;;;12.09;87.63;102359.53;5059493;28;20052;-67
2023/05/24 08:04:54;;;;;;;22.58;5.88;;;;;;;12.08;86.61;102360.59;5075354;28;20051;-66
2023/05/24 08:07:22;;;;;;;19.60;5.20;;;;;;;12.13;86.21;102361.53;5076590;28;20475;-67
2023/05/24 08:09:50;;;;;;;21.98;5.47;;;;;;;12.18;85.62;102355.34;5074329;28;20098;-67
2023/05/24 08:12:18;;;;;;;21.40;5.10;;;;;;;12.17;84.41;102353.69;5077362;28;20098;-67
2023/05/24 08:14:45;;;;;;;20.92;5.25;;;;;;;12.17;84.49;102352.84;5065484;28;20544;-67
2023/05/24 08:17:13;;;;;;;20.17;5.32;;;;;;;12.19;84.60;102351.53;5039001;28;20057;-67
2023/05/24 08:19:41;;;;;;;21.20;5.45;;;;;;;12.12;84.41;102350.84;5056049;28;20076;-67
2023/05/24 08:22:08;;;;;;;16.08;5.13;;;;;;;12.17;85.93;102355.56;5058753;28;20041;-69
2023/05/24 08:24:36;;;;;;;18.35;5.13;;;;;;;12.24;84.14;102348.06;5058880;28;20481;-67
2023/05/24 08:27:04;;;;;;;15.43;4.80;;;;;;;12.31;83.99;102335.97;5073196;28;20485;-67
2023/05/24 08:29:32;;;;;;;20.98;5.60;;;;;;;12.41;83.58;102337.22;5055020;28;20102;-67
2023/05/24 08:32:01;;;;;;;20.95;5.00;;;;;;;12.48;82.27;102333.28;5056829;28;20045;-68
2023/05/24 08:34:29;;;;;;;18.65;4.53;;;;;;;12.56;80.78;102329.31;5065639;28;20052;-66
2023/05/24 08:36:57;;;;;;;16.08;4.75;;;;;;;12.60;79.87;102335.94;5058157;28;20044;-67
2023/05/24 08:39:25;;;;;;;19.85;5.18;;;;;;;12.63;79.08;102345.56;5074785;28;20083;-67
2023/05/24 08:41:53;;;;;;;17.13;4.65;;;;;;;12.61;78.46;102334.88;5074908;28;20497;-67
2023/05/24 08:44:44;;;;;;;17.58;4.63;;;;;;;12.58;79.04;102329.91;5056154;28;20362;-67
2023/05/24 08:47:13;;;;;;;17.73;5.35;;;;;;;12.53;78.83;102343.47;5075939;28;20045;-68
2023/05/24 08:49:42;;;;;;;17.90;4.88;;;;;;;12.46;79.83;102340.03;5058617;28;20079;-67
2023/05/24 08:52:10;;;;;;;20.38;5.30;;;;;;;12.43;79.32;102329.59;5075788;28;20045;-66
2023/05/24 08:54:38;;;;;;;21.05;5.07;;;;;;;12.44;79.74;102336.75;5062932;28;20045;-67
2023/05/24 08:57:07;;;;;;;20.45;5.75;;;;;;;12.51;81.42;102326.50;5038111;28;20481;-66
2023/05/24 08:59:34;;;;;;;18.27;5.30;;;;;;;12.65;81.74;102325.13;5030297;28;20045;-66
2023/05/24 09:02:03;;;;;;;38.83;7.05;;;;;;;12.78;79.99;102326.72;5043111;28;20121;-67
2023/05/24 09:04:33;;;;;;;27.45;6.55;;;;;;;12.93;78.17;102323.41;5034451;28;20107;-67
2023/05/24 09:07:01;;;;;;;24.65;5.53;;;;;;;12.95;77.55;102319.38;5047471;28;20073;-67
2023/05/24 09:09:30;;;;;;;21.23;5.32;;;;;;;12.96;76.18;102323.78;5053918;28;20065;-68
2023/05/24 09:12:03;;;;;;;17.70;4.90;;;;;;;12.90;76.34;102323.94;5050442;28;20049;-67
2023/05/24 09:14:31;;;;;;;17.73;5.80;;;;;;;12.87;77.06;102310.72;5018819;28;20097;-67
2023/05/24 09:16:59;;;;;;;17.83;4.57;;;;;;;12.87;77.71;102324.41;5054888;28;20053;-66
2023/05/24 09:19:27;;;;;;;19.80;4.90;;;;;;;12.84;77.85;102314.78;5037763;28;20041;-67
2023/05/24 09:21:56;;;;;;;22.25;5.97;;;;;;;12.86;77.87;102320.00;5053835;28;20075;-67
2023/05/24 09:24:23;;;;;;;21.50;5.75;;;;;;;12.87;77.69;102321.66;5035912;28;20581;-66
2023/05/24 09:26:51;;;;;;;16.83;5.00;;;;;;;12.90;77.00;102318.44;5072081;28;20401;-68
2023/05/24 09:29:23;;;;;;;24.02;5.57;;;;;;;12.93;76.15;102320.69;5057448;28;20045;-66
2023/05/24 09:31:56;;;;;;;15.27;4.85;;;;;;;12.94;76.20;102319.59;5074542;28;20118;-66
2023/05/24 09:34:24;;;;;;;19.48;5.43;;;;;;;13.02;75.22;102313.72;5055512;28;20049;-66
2023/05/24 09:36:52;;;;;;;16.60;4.68;;;;;;;13.04;72.62;102310.75;5051133;28;20451;-67
2023/05/24 09:39:20;;;;;;;17.75;4.95;;;;;;;13.07;73.18;102310.25;5051199;28;20049;-67
2023/05/24 09:41:56;;;;;;;17.27;5.85;;;;;;;13.10;74.25;102307.84;5020284;28;20069;-68
2023/05/24 09:44:26;;;;;;;20.08;5.65;;;;;;;13.20;75.90;102309.91;5044134;28;20045;-68
2023/05/24 09:47:03;;;;;;;17.90;4.90;;;;;;;13.30;74.39;102309.28;5060702;28;20053;-67
2023/05/24 09:49:32;;;;;;;16.70;5.05;;;;;;;13.40;71.94;102310.28;5075161;28;20101;-66
2023/05/24 09:52:01;;;;;;;14.85;4.93;;;;;;;13.53;70.33;102314.56;5080379;28;20074;-68
2023/05/24 09:54:31;;;;;;;18.65;5.00;;;;;;;13.59;70.17;102297.16;5068304;28;20077;-67
2023/05/24 09:57:03;;;;;;;20.27;6.38;;;;;;;13.56;70.40;102305.84;5029387;28;20048;-66
2023/05/24 09:59:35;;;;;;;14.00;4.70;;;;;;;13.52;65.19;102310.19;5085201;28;20048;-69
2023/05/24 10:02:11;;;;;;;19.35;5.38;;;;;;;13.45;63.38;102304.06;5082862;28;20048;-67
2023/05/24 10:04:39;;;;;;;18.90;5.18;;;;;;;13.42;64.41;102310.00;5055770;28;20201;-67
2023/05/24 10:07:08;;;;;;;17.92;5.18;;;;;;;13.45;65.67;102320.47;5045598;28;20124;-68
2023/05/24 10:09:37;;;;;;;15.35;5.35;;;;;;;13.45;66.12;102323.22;5077528;28;20056;-67
2023/05/24 10:12:08;;;;;;;14.07;4.40;;;;;;;13.37;67.20;102318.16;5058078;28;20075;-67
2023/05/24 10:14:37;;;;;;;14.70;4.55;;;;;;;13.36;69.21;102321.97;5056046;28;20059;-68
2023/05/24 10:17:08;;;;;;;17.33;4.72;;;;;;;13.37;70.93;102315.41;5070382;28;20053;-68
2023/05/24 10:19:37;;;;;;;14.35;4.82;;;;;;;13.33;68.01;102317.00;5019344;28;20049;-67
2023/05/24 10:22:07;;;;;;;15.88;4.60;;;;;;;13.33;67.41;102311.53;4687387;28;10000630;-67
2023/05/24 10:24:46;;;;;;;14.18;4.47;;;;;;;13.31;69.28;102313.69;5030797;28;20805;-67
2023/05/24 10:27:17;;;;;;;18.90;4.88;;;;;;;13.30;71.38;102314.75;5048528;28;20055;-67
2023/05/24 10:30:08;;;;;;;18.33;5.25;;;;;;;13.28;72.05;102311.47;5035251;28;20079;-67
2023/05/24 10:32:40;;;;;;;15.85;4.85;;;;;;;13.28;73.43;102306.00;5037206;28;20152;-68
2023/05/24 10:35:10;;;;;;;15.10;4.53;;;;;;;13.30;73.82;102312.00;5031889;28;20107;-68
2023/05/24 10:37:38;;;;;;;20.58;5.47;;;;;;;13.30;72.78;102307.41;5047207;28;20056;-67
2023/05/24 10:40:08;;;;;;;18.58;5.03;;;;;;;13.31;72.38;102302.75;5035966;28;20064;-69
2023/05/24 10:42:38;;;;;;;19.20;5.47;;;;;;;13.39;74.05;102310.53;5050683;28;20056;-69
2023/05/24 10:45:25;;;;;;;18.83;5.13;;;;;;;13.45;74.31;102312.25;5052039;28;20057;-67
2023/05/24 10:47:53;;;;;;;20.35;5.25;;;;;;;13.42;72.43;102310.00;5050587;28;20052;-67
2023/05/24 10:50:21;;;;;;;18.15;5.45;;;;;;;13.42;73.33;102313.59;5051609;28;20500;-67
2023/05/24 10:52:49;;;;;;;18.88;5.20;;;;;;;13.48;73.48;102309.03;5053132;28;20497;-68
2023/05/24 10:55:19;;;;;;;16.52;4.93;;;;;;;13.54;73.56;102313.50;5053017;28;20082;-68
2023/05/24 10:57:47;;;;;;;14.70;4.70;;;;;;;13.59;74.19;102305.38;5055191;28;20037;-67
2023/05/24 11:00:26;;;;;;;19.20;5.28;;;;;;;13.65;74.15;102319.94;5029486;28;20049;-67
2023/05/24 11:03:22;;;;;;;19.77;5.00;;;;;;;13.66;72.71;102316.13;5053411;28;20055;-68
2023/05/24 11:05:54;;;;;;;15.98;4.95;;;;;;;13.62;74.42;102310.31;5050064;28;20060;-66
2023/05/24 11:08:34;;;;;;;19.45;5.53;;;;;;;13.64;73.63;102312.81;5053633;28;20498;-67
2023/05/24 11:11:11;;;;;;;15.70;4.60;;;;;;;13.68;72.50;102310.41;5015808;28;20045;-67
2023/05/24 11:13:56;;;;;;;23.63;5.65;;;;;;;13.70;72.35;102313.72;5050249;28;20102;-67
2023/05/24 11:16:38;;;;;;;17.00;5.10;;;;;;;13.72;72.98;102300.59;5060714;28;20064;-68
2023/05/24 11:19:16;;;;;;;17.02;5.20;;;;;;;13.82;73.62;102307.03;5064071;28;20076;-67
2023/05/24 11:21:46;;;;;;;16.75;5.00;;;;;;;13.84;71.97;102301.31;5053229;28;20080;-66
2023/05/24 11:24:19;;;;;;;19.75;5.88;;;;;;;13.85;70.43;102302.94;5052705;28;20044;-67
2023/05/24 11:26:47;;;;;;;18.30;5.10;;;;;;;13.82;69.85;102308.94;5061565;28;20052;-67
2023/05/24 11:29:21;;;;;;;14.82;4.43;;;;;;;13.83;69.73;102308.72;5062533;28;20049;-67